Aérodrome :
LOGIN :

S'inscrire | Disclaimer

   EN    FR    IT 

 










Légende :    VFR   VFR Marginal   IFR   IFR Intensif   IFR Très Intensif
Visi : 
Plafond : 
>= 8 km
>= 3000ft
5 à 8 km
1000 à 3000 ft
1500m à 5 km
500 à 1000 ft
800 à 1500m
200 à 500 ft
< 800m
< 200 ft
Symboles :   Orages  Brouillard  Fortes neiges  Fortes précipitations  Vent > 20 kt
SIGMETs :   Divers  Orages  Givrage  Turbulence  Onde Orograph.  Cendres Volcan.







- Altitude de l'aérodrome : 141 ft
- Code IATA : SKS


EKSP - Srydstrup Vojens

DERNIER METAR :
  • 251920Z 24010KT 9999 -SHRA SCT011 BKN020 08/06 Q1006

METARs EXPIRÉS :
  • 251850Z 24008KT 220V290 9999 -SHRA SCT011 BKN018 08/06 Q1006
  • 251820Z 24012KT 9999 -RA SCT012 BKN019 08/06 Q1006
  • 251750Z 25012KT 9999 FEW013 BKN020 08/06 Q1006
  • 251720Z 25014KT 9999 FEW013 BKN020 08/06 Q1006
  • 251650Z 25013KT 9999 SCT015 BKN060 08/06 Q1006

TAF TAF EKSP
Valide du 25 à 18h jusqu'au 26 à 18h UTC


251717Z 2518/2618 28012KT 9999 BKN025
TEMPO 2518/2522 4000 SHRA BKN005 BKN020CB
TEMPO 2522/2607 2500 BR -SHRA BKN004 FEW020TCU
TEMPO 2607/2612 4000 SHRA SCT020CB
TEMPO 2612/2617 26015G25KT -SHRA FEW020CB
Pas de NOTAMs connus pour ce terrain.



MET'MAP, la Météo Aéronautique d'un coup d'oeil ! - Copyright ORBIFLY Décembre 2007 - Disclaimer

ORBIFLY MET'MAP TEAM :

Programmation & Développement : Alexandra Zaïnal
Conception & Développement : Baudouin d'Aumeries
Co-Programmation & Développement : Marc-Olivier Méhu
Soutien technique & logistique : Manuel Goepfert

Contact : metmap@orbifly.com




SOURCES & CREDITS :

   NOAA